createdAt,value
2023-02-21T00:03:48.791Z,9.49
2023-02-21T00:08:50.469Z,9.39
2023-02-21T00:13:52.145Z,9.13
2023-02-21T00:18:53.708Z,8.94
2023-02-21T00:23:55.505Z,8.94
2023-02-21T00:28:57.033Z,8.94
2023-02-21T00:33:58.631Z,8.85
2023-02-21T00:39:00.329Z,8.87
2023-02-21T00:44:02.205Z,9.04
2023-02-21T00:49:04.826Z,9.25
2023-02-21T00:54:06.388Z,9.35
2023-02-21T00:59:08.093Z,9.42
2023-02-21T01:04:09.697Z,9.28
2023-02-21T01:09:11.339Z,9.41
2023-02-21T01:14:13.592Z,9.36
2023-02-21T01:19:16.214Z,9.36
2023-02-21T01:24:17.784Z,9.22
2023-02-21T01:29:19.325Z,9.16
2023-02-21T01:34:20.849Z,9.22
2023-02-21T01:39:22.341Z,9.31
2023-02-21T01:44:27.077Z,9.37
2023-02-21T01:49:29.468Z,9.45
2023-02-21T01:54:36.112Z,9.34
2023-02-21T01:59:37.885Z,9.41
2023-02-21T02:04:42.122Z,9.41
2023-02-21T02:09:43.883Z,9.39
2023-02-21T02:15:03.716Z,9.45
2023-02-21T02:20:43.476Z,9.51
2023-02-21T02:26:12.813Z,9.38
2023-02-21T02:31:49.036Z,9.49
2023-02-21T02:37:05.866Z,9.54
2023-02-21T02:42:26.346Z,9.58
2023-02-21T02:47:40.067Z,9.53
2023-02-21T02:52:55.386Z,9.57
2023-02-21T02:58:01.860Z,9.50
2023-02-21T03:03:51.087Z,9.53
2023-02-21T03:09:19.585Z,9.59
2023-02-21T03:14:26.104Z,9.61
2023-02-21T03:19:38.827Z,9.55
2023-02-21T03:24:44.287Z,9.47
2023-02-21T03:29:47.095Z,9.38
2023-02-21T03:34:49.099Z,9.40
2023-02-21T03:39:52.825Z,9.42
2023-02-21T03:44:55.420Z,9.47
2023-02-21T03:49:57.865Z,9.57
2023-02-21T03:54:59.773Z,9.56
2023-02-21T04:00:01.968Z,9.57
2023-02-21T04:05:06.485Z,9.56
2023-02-21T04:10:08.445Z,9.62
2023-02-21T04:15:18.607Z,9.67
2023-02-21T04:20:20.940Z,9.67
2023-02-21T04:25:27.577Z,9.68
2023-02-21T04:30:35.095Z,9.61
2023-02-21T04:35:36.921Z,9.57
2023-02-21T04:40:46.139Z,9.37
2023-02-21T04:45:47.800Z,9.49
2023-02-21T04:50:49.357Z,9.50
2023-02-21T04:55:50.961Z,9.53
2023-02-21T05:00:52.560Z,9.28
2023-02-21T05:05:54.224Z,9.21
2023-02-21T05:10:55.794Z,9.31
2023-02-21T05:15:57.454Z,9.40
2023-02-21T05:20:59.023Z,9.44
2023-02-21T05:26:03.560Z,9.43
2023-02-21T05:31:05.763Z,9.31
2023-02-21T05:36:08.080Z,9.34
2023-02-21T05:41:09.660Z,9.35
2023-02-21T05:46:34.884Z,9.43
2023-02-21T05:51:42.730Z,9.46
2023-02-21T05:56:46.213Z,9.49
2023-02-21T06:01:49.152Z,9.49
2023-02-21T06:06:51.418Z,9.44
2023-02-21T06:11:56.549Z,9.44
2023-02-21T06:16:58.110Z,9.32
2023-02-21T06:21:59.655Z,9.45
2023-02-21T06:27:01.175Z,9.52
2023-02-21T06:32:02.715Z,9.52
2023-02-21T06:37:04.443Z,9.36
2023-02-21T06:42:06.188Z,9.38
2023-02-21T06:47:07.814Z,9.47
2023-02-21T06:52:10.369Z,9.59
2023-02-21T06:57:11.858Z,9.58
2023-02-21T07:02:18.942Z,9.67
2023-02-21T07:07:20.663Z,9.63
2023-02-21T07:12:22.200Z,9.77
2023-02-21T07:17:23.751Z,9.83
2023-02-21T07:22:25.311Z,9.89
2023-02-21T07:27:26.865Z,9.83
2023-02-21T07:32:28.451Z,9.80
2023-02-21T07:37:30.001Z,9.88
2023-02-21T07:42:31.546Z,9.96
2023-02-21T07:47:33.091Z,10.06
2023-02-21T07:52:34.626Z,10.12
2023-02-21T07:57:36.152Z,10.21
2023-02-21T08:02:37.636Z,10.00
2023-02-21T08:07:39.108Z,9.87
2023-02-21T08:12:40.663Z,9.86
2023-02-21T08:17:44.030Z,9.97
2023-02-21T08:22:45.611Z,10.42
2023-02-21T08:27:47.107Z,10.18
2023-02-21T08:32:48.682Z,10.30
2023-02-21T08:37:50.749Z,10.68
2023-02-21T08:42:54.970Z,11.04
2023-02-21T08:47:58.205Z,11.08
2023-02-21T08:52:59.737Z,11.24
2023-02-21T08:58:01.305Z,11.17
2023-02-21T09:03:02.939Z,11.38
2023-02-21T09:08:04.709Z,11.31
2023-02-21T09:13:06.170Z,11.45
2023-02-21T09:18:07.708Z,11.57
2023-02-21T09:23:09.611Z,11.82
2023-02-21T09:28:11.117Z,12.02
2023-02-21T09:33:14.759Z,12.10
2023-02-21T09:38:16.317Z,12.19
2023-02-21T09:43:39.717Z,11.97
2023-02-21T09:48:44.013Z,12.18
2023-02-21T09:53:47.795Z,12.26
2023-02-21T09:58:49.887Z,12.55
2023-02-21T10:04:10.452Z,12.55
2023-02-21T10:09:34.764Z,12.08
2023-02-21T10:14:48.387Z,12.12
2023-02-21T10:19:57.041Z,12.25
2023-02-21T10:24:59.959Z,12.51
2023-02-21T10:30:06.399Z,12.51
2023-02-21T10:35:08.145Z,12.84
2023-02-21T10:40:28.285Z,13.22
2023-02-21T10:45:38.678Z,13.43
2023-02-21T10:50:50.968Z,12.78
2023-02-21T10:56:17.612Z,13.50
2023-02-21T11:01:28.031Z,13.40
2023-02-21T11:06:34.474Z,13.46
2023-02-21T11:11:39.774Z,13.56
2023-02-21T11:16:41.333Z,14.07
2023-02-21T11:21:43.003Z,14.02
2023-02-21T11:26:48.813Z,14.54
2023-02-21T11:31:50.608Z,14.65
2023-02-21T11:36:52.317Z,14.16
2023-02-21T11:42:01.522Z,13.31
2023-02-21T11:47:29.250Z,13.40
2023-02-21T11:52:56.381Z,13.24
2023-02-21T11:58:25.686Z,13.59
2023-02-21T12:03:32.947Z,15.49
2023-02-21T12:08:51.610Z,16.19
2023-02-21T12:14:11.398Z,17.19
2023-02-21T12:20:02.869Z,16.29
2023-02-21T12:25:32.851Z,15.21
2023-02-21T12:31:09.667Z,15.28
2023-02-21T12:36:48.103Z,15.27
2023-02-21T12:42:06.314Z,15.56
2023-02-21T12:47:20.951Z,16.53
2023-02-21T12:52:38.603Z,16.33
2023-02-21T12:58:03.004Z,15.77
2023-02-21T13:03:27.951Z,16.07
2023-02-21T13:08:50.721Z,16.90
2023-02-21T13:13:52.254Z,18.32
2023-02-21T13:19:04.348Z,19.17
2023-02-21T13:24:36.521Z,19.12
2023-02-21T13:29:41.648Z,19.25
2023-02-21T13:34:47.138Z,18.15
2023-02-21T13:40:04.174Z,17.86
2023-02-21T13:45:21.907Z,19.00
2023-02-21T13:50:39.442Z,18.35
2023-02-21T13:56:06.925Z,18.45
2023-02-21T14:01:43.955Z,17.99
2023-02-21T14:06:56.123Z,19.13
2023-02-21T14:12:03.506Z,19.29
2023-02-21T14:17:10.413Z,18.14
2023-02-21T14:22:26.118Z,18.78
2023-02-21T14:27:27.493Z,18.79
2023-02-21T14:32:50.462Z,19.33
2023-02-21T14:38:02.113Z,18.76
2023-02-21T14:43:22.727Z,18.22
2023-02-21T14:48:49.386Z,18.33
2023-02-21T14:54:17.935Z,18.26
2023-02-21T14:59:27.155Z,18.19
2023-02-21T15:04:28.862Z,17.80
2023-02-21T15:09:30.474Z,17.33
2023-02-21T15:14:39.404Z,17.18
2023-02-21T15:19:40.908Z,16.95
2023-02-21T15:25:01.468Z,17.00
2023-02-21T15:30:34.723Z,16.91
2023-02-21T15:35:40.229Z,16.41
2023-02-21T15:40:42.031Z,16.02
2023-02-21T15:45:50.891Z,15.93
2023-02-21T15:50:53.104Z,15.58
2023-02-21T15:56:14.583Z,14.95
2023-02-21T16:01:20.452Z,14.51
2023-02-21T16:06:29.930Z,13.75
2023-02-21T16:11:39.590Z,13.10
2023-02-21T16:16:41.445Z,12.80
2023-02-21T16:21:43.226Z,12.47
2023-02-21T16:27:03.727Z,12.12
2023-02-21T16:32:05.977Z,11.85
2023-02-21T16:37:12.566Z,11.55
2023-02-21T16:42:14.700Z,11.39
2023-02-21T16:47:17.685Z,11.12
2023-02-21T16:52:19.265Z,10.96
2023-02-21T16:57:20.927Z,10.85
2023-02-21T17:02:22.510Z,10.61
2023-02-21T17:07:24.292Z,10.48
2023-02-21T17:12:26.073Z,10.35
2023-02-21T17:17:27.721Z,10.21
2023-02-21T17:22:29.254Z,10.19
2023-02-21T17:27:30.830Z,9.94
2023-02-21T17:32:32.526Z,9.71
2023-02-21T17:37:34.219Z,9.57
2023-02-21T17:42:35.781Z,9.41
2023-02-21T17:47:37.974Z,9.35
2023-02-21T17:52:40.013Z,9.28
2023-02-21T17:57:41.770Z,9.16
2023-02-21T18:02:43.318Z,9.01
2023-02-21T18:07:49.628Z,8.92
2023-02-21T18:12:52.210Z,8.88
2023-02-21T18:17:53.802Z,8.79
2023-02-21T18:22:55.320Z,8.71
2023-02-21T18:27:56.839Z,8.70
2023-02-21T18:32:58.450Z,8.59
2023-02-21T18:38:00.374Z,8.49
2023-02-21T18:43:02.235Z,8.52
2023-02-21T18:48:04.015Z,8.37
2023-02-21T18:53:05.755Z,8.21
2023-02-21T18:58:08.257Z,8.08
2023-02-21T19:03:11.358Z,7.94
2023-02-21T19:08:12.922Z,7.82
2023-02-21T19:13:14.708Z,7.81
2023-02-21T19:18:17.024Z,7.84
2023-02-21T19:23:18.593Z,7.75
2023-02-21T19:28:20.137Z,7.61
2023-02-21T19:33:21.761Z,7.52
2023-02-21T19:38:23.584Z,7.44
2023-02-21T19:43:25.342Z,7.38
2023-02-21T19:48:26.954Z,7.28
2023-02-21T19:53:28.529Z,7.21
2023-02-21T19:58:30.070Z,7.39
2023-02-21T20:03:31.666Z,7.22
2023-02-21T20:08:33.264Z,7.30
2023-02-21T20:13:34.938Z,7.35
2023-02-21T20:18:37.073Z,7.30
2023-02-21T20:23:38.686Z,7.39
2023-02-21T20:28:40.287Z,7.71
2023-02-21T20:33:42.315Z,7.97
2023-02-21T20:38:43.994Z,8.12
2023-02-21T20:43:45.532Z,8.17
2023-02-21T20:48:47.182Z,8.18
2023-02-21T20:53:49.012Z,7.95
2023-02-21T20:58:50.792Z,7.84
2023-02-21T21:03:52.392Z,7.98
2023-02-21T21:08:54.349Z,8.23
2023-02-21T21:13:55.924Z,8.08
2023-02-21T21:18:57.448Z,8.24
2023-02-21T21:23:59.170Z,7.90
2023-02-21T21:29:00.968Z,7.94
2023-02-21T21:34:02.644Z,8.18
2023-02-21T21:39:04.305Z,8.24
2023-02-21T21:44:05.924Z,8.08
2023-02-21T21:49:07.770Z,7.86
2023-02-21T21:54:09.859Z,7.85
2023-02-21T21:59:11.475Z,7.95
2023-02-21T22:04:13.530Z,7.88
2023-02-21T22:09:15.114Z,7.93
2023-02-21T22:14:18.145Z,7.71
2023-02-21T22:19:22.231Z,7.52
2023-02-21T22:24:25.206Z,7.58
2023-02-21T22:29:26.774Z,7.77
2023-02-21T22:34:28.373Z,7.78
2023-02-21T22:39:30.061Z,7.79
2023-02-21T22:44:31.634Z,7.64
2023-02-21T22:49:33.203Z,7.53
2023-02-21T22:54:34.735Z,7.50
2023-02-21T22:59:36.517Z,7.52
2023-02-21T23:04:38.417Z,7.25
2023-02-21T23:09:40.117Z,7.27
2023-02-21T23:14:42.397Z,6.92
2023-02-21T23:19:43.941Z,6.83
2023-02-21T23:24:45.454Z,6.79
2023-02-21T23:29:47.022Z,6.65
2023-02-21T23:34:48.713Z,6.58
2023-02-21T23:39:50.389Z,6.67
2023-02-21T23:44:51.981Z,6.77
2023-02-21T23:49:53.649Z,7.00
2023-02-21T23:54:55.462Z,7.21
2023-02-21T23:59:57.094Z,7.13
